createdAt,value
2023-10-26T00:00:08.957Z,27.27
2023-10-26T00:02:35.464Z,29.13
2023-10-26T00:05:02.141Z,26.55
2023-10-26T00:07:29.250Z,24.65
2023-10-26T00:09:55.688Z,26.33
2023-10-26T00:12:23.294Z,24.27
2023-10-26T00:14:49.881Z,27.27
2023-10-26T00:17:16.508Z,31.30
2023-10-26T00:19:42.960Z,27.45
2023-10-26T00:22:09.432Z,27.13
2023-10-26T00:24:36.067Z,31.08
2023-10-26T00:27:02.592Z,26.95
2023-10-26T00:29:29.141Z,31.45
2023-10-26T00:31:55.648Z,37.70
2023-10-26T00:34:22.122Z,36.22
2023-10-26T00:36:48.847Z,32.50
2023-10-26T00:39:15.333Z,30.10
2023-10-26T00:41:42.592Z,38.17
2023-10-26T00:44:09.135Z,29.65
2023-10-26T00:46:36.491Z,39.20
2023-10-26T00:49:03.633Z,29.70
2023-10-26T00:51:30.328Z,39.75
2023-10-26T00:53:56.833Z,34.00
2023-10-26T00:56:23.376Z,30.58
2023-10-26T00:58:50.009Z,31.83
2023-10-26T01:01:16.617Z,30.13
2023-10-26T01:03:43.292Z,35.60
2023-10-26T01:06:09.932Z,40.83
2023-10-26T01:08:36.932Z,29.90
2023-10-26T01:11:03.968Z,41.28
2023-10-26T01:13:31.364Z,37.80
2023-10-26T01:15:57.890Z,39.60
2023-10-26T01:18:24.580Z,40.08
2023-10-26T01:20:51.225Z,40.40
2023-10-26T01:23:17.773Z,38.25
2023-10-26T01:25:46.268Z,45.50
2023-10-26T01:28:12.908Z,37.92
2023-10-26T01:30:41.924Z,35.63
2023-10-26T01:33:08.507Z,35.58
2023-10-26T01:35:39.757Z,33.92
2023-10-26T01:38:06.396Z,35.60
2023-10-26T01:40:33.448Z,37.58
2023-10-26T01:42:59.916Z,35.22
2023-10-26T01:45:26.461Z,27.50
2023-10-26T01:47:53.606Z,34.75
2023-10-26T01:50:20.165Z,31.35
2023-10-26T01:52:46.818Z,36.28
2023-10-26T01:55:13.374Z,41.95
2023-10-26T01:57:39.842Z,36.60
2023-10-26T02:00:07.046Z,38.10
2023-10-26T02:02:33.604Z,39.55
2023-10-26T02:05:00.192Z,49.50
2023-10-26T02:07:26.712Z,46.60
2023-10-26T02:09:53.168Z,49.80
2023-10-26T02:12:19.753Z,54.40
2023-10-26T02:14:46.274Z,40.03
2023-10-26T02:17:14.122Z,39.20
2023-10-26T02:19:40.709Z,42.10
2023-10-26T02:22:07.211Z,39.72
2023-10-26T02:24:33.689Z,47.40
2023-10-26T02:27:00.278Z,48.40
2023-10-26T02:29:26.879Z,49.30
2023-10-26T02:31:53.360Z,55.05
2023-10-26T02:34:19.910Z,60.95
2023-10-26T02:36:46.439Z,56.50
2023-10-26T02:39:12.967Z,55.65
2023-10-26T02:41:39.507Z,59.70
2023-10-26T02:44:06.049Z,71.00
2023-10-26T02:46:32.564Z,55.67
2023-10-26T02:48:59.160Z,86.57
2023-10-26T02:51:25.764Z,75.70
2023-10-26T02:53:52.331Z,43.53
2023-10-26T02:56:18.853Z,60.58
2023-10-26T02:58:45.318Z,38.97
2023-10-26T03:01:11.781Z,44.63
2023-10-26T03:03:38.347Z,39.33
2023-10-26T03:06:05.117Z,48.65
2023-10-26T03:08:31.607Z,38.92
2023-10-26T03:10:58.086Z,38.88
2023-10-26T03:13:24.553Z,49.45
2023-10-26T03:15:51.080Z,38.85
2023-10-26T03:18:17.723Z,37.47
2023-10-26T03:20:44.336Z,32.83
2023-10-26T03:23:10.936Z,30.25
2023-10-26T03:25:37.449Z,30.70
2023-10-26T03:28:04.145Z,31.75
2023-10-26T03:30:30.703Z,39.45
2023-10-26T03:32:57.446Z,38.58
2023-10-26T03:35:24.559Z,268.50
2023-10-26T03:37:51.066Z,61.60
2023-10-26T03:40:17.584Z,30.00
2023-10-26T03:42:44.171Z,33.70
2023-10-26T03:45:11.271Z,36.05
2023-10-26T03:47:37.848Z,32.70
2023-10-26T03:50:04.726Z,47.00
2023-10-26T03:52:31.454Z,37.97
2023-10-26T03:54:57.956Z,71.13
2023-10-26T03:57:24.497Z,81.50
2023-10-26T03:59:50.974Z,51.63
2023-10-26T04:02:17.485Z,46.13
2023-10-26T04:04:44.111Z,38.75
2023-10-26T04:07:10.664Z,68.32
2023-10-26T04:09:37.256Z,55.35
2023-10-26T04:12:04.114Z,118.10
2023-10-26T04:14:32.335Z,91.20
2023-10-26T04:16:58.821Z,120.53
2023-10-26T04:19:25.250Z,82.82
2023-10-26T04:21:51.743Z,112.40
2023-10-26T04:24:18.278Z,91.38
2023-10-26T04:26:44.774Z,33.67
2023-10-26T04:29:11.747Z,37.42
2023-10-26T04:31:38.242Z,87.63
2023-10-26T04:34:04.971Z,43.63
2023-10-26T04:36:31.524Z,54.10
2023-10-26T04:38:58.149Z,60.85
2023-10-26T04:41:24.781Z,45.55
2023-10-26T04:43:51.295Z,48.30
2023-10-26T04:46:17.901Z,114.40
2023-10-26T04:48:44.427Z,31.63
2023-10-26T04:51:10.960Z,43.50
2023-10-26T04:53:37.510Z,44.22
2023-10-26T04:56:04.221Z,66.53
2023-10-26T04:58:30.814Z,41.55
2023-10-26T05:00:57.504Z,36.17
2023-10-26T05:03:24.039Z,100.18
2023-10-26T05:05:50.620Z,73.00
2023-10-26T05:08:17.151Z,78.57
2023-10-26T05:10:43.692Z,90.57
2023-10-26T05:13:11.672Z,85.03
2023-10-26T05:15:38.347Z,98.60
2023-10-26T05:18:05.177Z,50.47
2023-10-26T05:20:34.101Z,63.80
2023-10-26T05:23:01.107Z,77.97
2023-10-26T05:25:27.667Z,174.07
2023-10-26T05:27:54.392Z,169.18
2023-10-26T05:30:21.120Z,146.82
2023-10-26T05:32:47.729Z,187.50
2023-10-26T05:35:15.214Z,209.90
2023-10-26T05:37:41.717Z,212.63
2023-10-26T05:40:09.613Z,143.23
2023-10-26T05:42:36.599Z,128.52
2023-10-26T05:45:04.006Z,156.25
2023-10-26T05:47:30.575Z,148.60
2023-10-26T05:49:57.112Z,103.40
2023-10-26T05:52:23.615Z,152.35
2023-10-26T05:54:50.235Z,198.05
2023-10-26T05:57:16.868Z,83.80
2023-10-26T05:59:43.370Z,168.77
2023-10-26T06:02:10.476Z,166.05
2023-10-26T06:04:37.104Z,155.32
2023-10-26T06:07:04.257Z,87.95
2023-10-26T06:09:31.057Z,122.05
2023-10-26T06:11:57.583Z,99.80
2023-10-26T06:14:24.096Z,105.70
2023-10-26T06:16:50.596Z,62.17
2023-10-26T06:19:17.067Z,68.90
2023-10-26T06:21:43.682Z,111.95
2023-10-26T06:24:10.583Z,92.60
2023-10-26T06:26:37.108Z,98.15
2023-10-26T06:29:03.597Z,55.72
2023-10-26T06:31:30.158Z,58.47
2023-10-26T06:33:56.691Z,38.80
2023-10-26T06:36:23.383Z,48.13
2023-10-26T06:38:50.112Z,58.50
2023-10-26T06:41:16.594Z,36.88
2023-10-26T06:43:43.615Z,56.95
2023-10-26T06:46:10.266Z,65.35
2023-10-26T06:48:37.087Z,37.70
2023-10-26T06:51:04.480Z,52.85
2023-10-26T06:53:31.045Z,74.75
2023-10-26T06:55:58.588Z,55.80
2023-10-26T06:58:25.120Z,36.47
2023-10-26T07:00:53.048Z,95.90
2023-10-26T07:03:21.117Z,109.32
2023-10-26T07:05:49.360Z,87.32
2023-10-26T07:08:16.732Z,60.67
2023-10-26T07:10:43.237Z,144.00
2023-10-26T07:13:09.791Z,92.45
2023-10-26T07:15:37.658Z,83.00
2023-10-26T07:18:05.365Z,43.67
2023-10-26T07:20:31.953Z,104.32
2023-10-26T07:22:58.507Z,62.47
2023-10-26T07:25:25.108Z,50.55
2023-10-26T07:27:51.810Z,45.03
2023-10-26T07:30:18.595Z,73.90
2023-10-26T07:32:45.198Z,52.97
2023-10-26T07:35:11.871Z,56.92
2023-10-26T07:37:38.858Z,53.67
2023-10-26T07:40:27.587Z,38.97
2023-10-26T07:42:53.238Z,49.08
2023-10-26T07:45:19.816Z,56.47
2023-10-26T07:47:46.458Z,53.70
2023-10-26T07:50:13.112Z,39.95
2023-10-26T07:52:39.697Z,72.10
2023-10-26T07:55:06.730Z,40.50
2023-10-26T07:57:33.250Z,34.03
2023-10-26T07:59:59.731Z,29.63
2023-10-26T08:02:26.259Z,28.23
2023-10-26T08:04:52.874Z,34.92
2023-10-26T08:07:19.397Z,27.02
2023-10-26T08:09:45.880Z,31.23
2023-10-26T08:12:12.768Z,34.58
2023-10-26T08:16:08.934Z,28.15
2023-10-26T08:17:26.889Z,29.08
2023-10-26T08:19:54.731Z,21.90
2023-10-26T08:22:24.456Z,25.13
2023-10-26T08:24:50.976Z,30.05
2023-10-26T08:27:17.513Z,23.60
2023-10-26T08:29:44.289Z,25.48
2023-10-26T08:32:10.936Z,28.20
2023-10-26T08:34:38.212Z,29.27
2023-10-26T08:39:34.228Z,27.80
2023-10-26T08:42:02.730Z,35.42
2023-10-26T08:44:29.968Z,41.85
2023-10-26T08:47:03.857Z,18.20
2023-10-26T08:49:34.477Z,20.55
2023-10-26T08:52:01.022Z,19.65
2023-10-26T08:54:28.145Z,23.60
2023-10-26T08:56:54.937Z,21.42
2023-10-26T08:59:24.403Z,18.38
2023-10-26T09:01:51.345Z,25.45
2023-10-26T09:04:18.321Z,20.67
2023-10-26T09:06:45.252Z,20.00
2023-10-26T09:09:11.761Z,15.85
2023-10-26T09:11:38.909Z,22.75
2023-10-26T09:14:17.610Z,17.48
2023-10-26T09:16:48.478Z,33.85
2023-10-26T09:19:17.037Z,20.98
2023-10-26T09:22:01.528Z,18.77
2023-10-26T09:24:30.092Z,19.23
2023-10-26T09:27:00.091Z,15.75
2023-10-26T09:32:10.145Z,20.27
2023-10-26T09:34:44.212Z,19.35
2023-10-26T09:37:11.558Z,20.83
2023-10-26T09:39:39.484Z,16.35
2023-10-26T09:42:13.111Z,18.73
2023-10-26T09:44:40.023Z,18.90
2023-10-26T09:47:07.733Z,18.85
2023-10-26T09:49:34.687Z,16.38
2023-10-26T09:52:01.299Z,19.45
2023-10-26T09:54:30.989Z,19.02
2023-10-26T09:57:19.117Z,17.67
2023-10-26T09:59:49.583Z,15.38
2023-10-26T10:02:17.241Z,15.07
2023-10-26T10:04:45.150Z,14.13
2023-10-26T10:07:17.582Z,15.23
2023-10-26T10:10:02.522Z,15.40
2023-10-26T10:12:29.054Z,13.85
2023-10-26T10:15:15.715Z,14.77
2023-10-26T10:17:44.984Z,17.40
2023-10-26T10:20:21.161Z,15.70
2023-10-26T10:22:48.822Z,15.90
2023-10-26T10:25:19.184Z,14.88
2023-10-26T10:27:49.015Z,16.17
2023-10-26T10:30:17.634Z,15.77
2023-10-26T10:32:48.062Z,17.00
2023-10-26T10:35:29.009Z,15.75
2023-10-26T10:38:17.200Z,16.73
2023-10-26T10:40:55.800Z,15.10
2023-10-26T10:43:35.474Z,15.95
2023-10-26T10:46:15.604Z,16.55
2023-10-26T10:49:05.424Z,14.95
2023-10-26T10:51:43.234Z,17.98
2023-10-26T10:54:30.755Z,17.48
2023-10-26T10:57:05.521Z,16.77
2023-10-26T10:59:32.061Z,17.45
2023-10-26T11:02:11.966Z,19.05
2023-10-26T11:05:02.324Z,17.23
2023-10-26T11:07:32.715Z,18.58
2023-10-26T11:10:00.130Z,16.83
2023-10-26T11:12:27.626Z,17.08
2023-10-26T11:14:55.076Z,18.10
2023-10-26T11:17:23.617Z,17.33
2023-10-26T11:19:51.032Z,16.83
2023-10-26T11:22:18.679Z,19.98
2023-10-26T11:24:46.608Z,17.50
2023-10-26T11:27:14.218Z,17.02
2023-10-26T11:29:42.073Z,17.83
2023-10-26T11:32:22.060Z,15.93
2023-10-26T11:35:03.973Z,18.42
2023-10-26T11:37:31.049Z,16.67
2023-10-26T11:39:57.533Z,20.98
2023-10-26T11:42:52.665Z,18.90
2023-10-26T11:45:21.011Z,18.17
2023-10-26T11:47:53.224Z,19.23
2023-10-26T11:50:29.820Z,15.68
2023-10-26T11:53:01.184Z,16.55
2023-10-26T11:55:29.496Z,19.30
2023-10-26T11:57:59.526Z,15.27
2023-10-26T12:00:27.572Z,18.70
2023-10-26T12:02:56.006Z,18.00
2023-10-26T12:05:23.514Z,17.63
2023-10-26T12:07:50.376Z,17.48
2023-10-26T12:10:21.774Z,16.27
2023-10-26T12:12:50.056Z,18.23
2023-10-26T12:15:16.783Z,18.95
2023-10-26T12:17:43.279Z,18.45
2023-10-26T12:20:10.006Z,17.83
2023-10-26T12:22:36.574Z,23.20
2023-10-26T12:25:07.804Z,18.92
2023-10-26T12:28:19.537Z,18.05
2023-10-26T12:30:22.154Z,16.83
2023-10-26T12:32:48.652Z,18.58
2023-10-26T12:35:15.227Z,19.38
2023-10-26T12:37:41.834Z,17.42
2023-10-26T12:40:09.322Z,17.17
2023-10-26T12:42:40.436Z,18.98
2023-10-26T12:45:07.524Z,18.77
2023-10-26T12:47:34.076Z,21.08
2023-10-26T12:50:00.585Z,16.88
2023-10-26T12:52:27.094Z,18.80
2023-10-26T12:54:53.602Z,21.25
2023-10-26T12:57:20.212Z,18.98
2023-10-26T12:59:46.817Z,19.05
2023-10-26T13:02:13.308Z,19.00
2023-10-26T13:04:39.953Z,25.00
2023-10-26T13:07:06.383Z,18.00
2023-10-26T13:09:32.895Z,19.17
2023-10-26T13:11:59.383Z,16.42
2023-10-26T13:14:25.847Z,17.75
2023-10-26T13:16:58.646Z,17.33
2023-10-26T13:19:26.279Z,18.52
2023-10-26T13:21:53.021Z,18.50
2023-10-26T13:24:19.634Z,18.52
2023-10-26T13:26:46.282Z,18.15
2023-10-26T13:29:12.805Z,17.05
2023-10-26T13:31:39.361Z,19.27
2023-10-26T13:34:08.521Z,18.13
2023-10-26T13:36:35.386Z,16.70
2023-10-26T13:39:04.838Z,17.95
2023-10-26T13:41:31.348Z,22.02
2023-10-26T13:43:59.819Z,17.17
2023-10-26T13:46:26.583Z,17.65
2023-10-26T13:48:53.133Z,15.23
2023-10-26T13:51:19.973Z,16.25
2023-10-26T13:53:46.500Z,13.05
2023-10-26T13:56:13.236Z,13.75
2023-10-26T13:58:39.684Z,14.27
2023-10-26T14:01:15.862Z,13.40
2023-10-26T14:03:42.540Z,13.85
2023-10-26T14:06:09.265Z,14.27
2023-10-26T14:08:36.058Z,12.75
2023-10-26T14:11:02.586Z,13.65
2023-10-26T14:13:29.670Z,13.52
2023-10-26T14:15:56.387Z,15.27
2023-10-26T14:18:23.121Z,14.63
2023-10-26T14:20:49.663Z,15.68
2023-10-26T14:23:16.148Z,16.98
2023-10-26T14:25:42.849Z,14.13
2023-10-26T14:28:09.377Z,14.95
2023-10-26T14:30:35.964Z,14.88
2023-10-26T14:33:02.533Z,15.43
2023-10-26T14:35:29.959Z,15.90
2023-10-26T14:37:59.707Z,17.65
2023-10-26T14:40:26.878Z,16.77
2023-10-26T14:42:53.831Z,16.58
2023-10-26T14:45:20.360Z,15.60
2023-10-26T14:47:47.073Z,15.05
2023-10-26T14:50:13.584Z,15.05
2023-10-26T14:52:40.137Z,15.27
2023-10-26T14:55:07.251Z,15.75
2023-10-26T14:57:34.049Z,13.48
2023-10-26T15:00:00.624Z,14.05
2023-10-26T15:02:27.149Z,14.65
2023-10-26T15:04:54.048Z,15.38
2023-10-26T15:07:20.923Z,14.30
2023-10-26T15:10:23.515Z,13.82
2023-10-26T15:12:33.813Z,15.98
2023-10-26T15:15:00.329Z,16.20
2023-10-26T15:17:26.889Z,18.23
2023-10-26T15:19:53.600Z,18.20
2023-10-26T15:22:20.081Z,16.92
2023-10-26T15:24:48.449Z,17.40
2023-10-26T15:27:15.008Z,15.25
2023-10-26T15:29:43.147Z,14.95
2023-10-26T15:32:09.958Z,17.10
2023-10-26T15:34:36.621Z,16.70
2023-10-26T15:37:03.556Z,15.23
2023-10-26T15:39:34.194Z,16.83
2023-10-26T15:42:00.711Z,14.45
2023-10-26T15:44:27.290Z,13.40
2023-10-26T15:46:53.755Z,16.65
2023-10-26T15:49:31.498Z,15.80
2023-10-26T15:52:02.352Z,16.63
2023-10-26T15:54:29.054Z,15.15
2023-10-26T15:56:55.486Z,16.38
2023-10-26T15:59:24.385Z,15.23
2023-10-26T16:01:51.030Z,15.98
2023-10-26T16:04:17.571Z,16.10
2023-10-26T16:06:46.630Z,15.27
2023-10-26T16:09:13.930Z,17.60
2023-10-26T16:11:40.485Z,16.73
2023-10-26T16:14:06.963Z,19.20
2023-10-26T16:16:33.503Z,18.25
2023-10-26T16:19:00.081Z,17.52
2023-10-26T16:21:26.602Z,20.80
2023-10-26T16:23:53.110Z,18.17
2023-10-26T16:26:19.731Z,16.63
2023-10-26T16:28:49.107Z,19.88
2023-10-26T16:31:17.166Z,18.75
2023-10-26T16:33:44.731Z,18.92
2023-10-26T16:36:11.227Z,17.73
2023-10-26T16:38:37.658Z,19.83
2023-10-26T16:41:04.754Z,19.23
2023-10-26T16:43:31.272Z,19.88
2023-10-26T16:45:58.013Z,19.90
2023-10-26T16:48:27.459Z,18.75
2023-10-26T16:50:54.620Z,20.40
2023-10-26T16:53:31.205Z,20.05
2023-10-26T16:56:02.862Z,19.00
2023-10-26T16:58:32.718Z,17.70
2023-10-26T17:03:27.452Z,17.08
2023-10-26T17:05:53.950Z,18.63
2023-10-26T17:08:20.917Z,21.23
2023-10-26T17:10:49.353Z,20.75
2023-10-26T17:13:16.705Z,19.98
2023-10-26T17:15:43.697Z,19.77
2023-10-26T17:18:11.015Z,18.65
2023-10-26T17:20:38.394Z,19.80
2023-10-26T17:23:04.873Z,21.05
2023-10-26T17:25:36.577Z,20.60
2023-10-26T17:28:03.348Z,22.33
2023-10-26T17:30:30.314Z,21.73
2023-10-26T17:32:57.448Z,20.98
2023-10-26T17:35:24.059Z,22.33
2023-10-26T17:37:50.969Z,22.25
2023-10-26T17:40:17.752Z,24.92
2023-10-26T17:42:44.358Z,24.60
2023-10-26T17:45:10.996Z,22.45
2023-10-26T17:47:37.741Z,24.35
2023-10-26T17:50:04.505Z,21.95
2023-10-26T17:52:30.984Z,22.98
2023-10-26T17:54:57.521Z,24.50
2023-10-26T17:57:24.467Z,27.40
2023-10-26T17:59:51.033Z,24.77
2023-10-26T18:02:17.501Z,22.92
2023-10-26T18:04:44.084Z,21.02
2023-10-26T18:07:15.668Z,22.05
2023-10-26T18:09:42.701Z,22.90
2023-10-26T18:12:11.666Z,21.67
2023-10-26T18:14:38.750Z,22.55
2023-10-26T18:17:05.202Z,20.80
2023-10-26T18:19:31.697Z,21.23
2023-10-26T18:21:58.149Z,20.15
2023-10-26T18:24:24.628Z,20.70
2023-10-26T18:26:51.108Z,24.95
2023-10-26T18:29:17.635Z,22.77
2023-10-26T18:31:44.343Z,20.70
2023-10-26T18:34:10.905Z,22.90
2023-10-26T18:36:40.043Z,22.10
2023-10-26T18:39:06.914Z,23.33
2023-10-26T18:41:34.013Z,21.30
2023-10-26T18:44:01.239Z,22.00
2023-10-26T18:46:27.978Z,19.98
2023-10-26T18:48:54.740Z,21.80
2023-10-26T18:51:24.016Z,18.95
2023-10-26T18:53:50.981Z,23.42
2023-10-26T18:56:23.659Z,20.50
2023-10-26T18:58:51.013Z,19.38
2023-10-26T19:01:17.733Z,20.23
2023-10-26T19:04:00.514Z,20.85
2023-10-26T19:06:28.460Z,20.50
2023-10-26T19:08:55.023Z,20.40
2023-10-26T19:11:21.557Z,19.67
2023-10-26T19:13:48.630Z,21.50
2023-10-26T19:16:15.766Z,20.55
2023-10-26T19:18:42.506Z,20.10
2023-10-26T19:21:09.521Z,20.58
2023-10-26T19:23:36.046Z,20.85
2023-10-26T19:26:03.065Z,21.17
2023-10-26T19:28:29.642Z,23.10
2023-10-26T19:30:56.328Z,24.70
2023-10-26T19:33:23.856Z,21.98
2023-10-26T19:35:50.444Z,20.92
2023-10-26T19:38:17.795Z,20.85
2023-10-26T19:40:44.293Z,20.35
2023-10-26T19:43:10.823Z,22.77
2023-10-26T19:45:37.358Z,21.10
2023-10-26T19:48:04.066Z,23.80
2023-10-26T19:50:32.086Z,21.60
2023-10-26T19:52:58.871Z,21.10
2023-10-26T19:55:25.320Z,21.73
2023-10-26T19:57:51.809Z,22.33
2023-10-26T20:00:18.895Z,22.33
2023-10-26T20:02:45.527Z,23.73
2023-10-26T20:05:13.045Z,20.95
2023-10-26T20:07:41.349Z,22.05
2023-10-26T20:10:09.172Z,22.80
2023-10-26T20:12:37.303Z,24.23
2023-10-26T20:15:04.353Z,24.90
2023-10-26T20:17:30.943Z,24.33
2023-10-26T20:19:57.679Z,23.05
2023-10-26T20:22:25.220Z,28.33
2023-10-26T20:24:51.715Z,25.35
2023-10-26T20:27:18.274Z,26.67
2023-10-26T20:29:44.881Z,24.40
2023-10-26T20:32:11.928Z,25.63
2023-10-26T20:34:38.452Z,23.88
2023-10-26T20:37:05.719Z,27.73
2023-10-26T20:39:33.403Z,31.48
2023-10-26T20:41:59.962Z,26.55
2023-10-26T20:44:26.414Z,27.95
2023-10-26T20:46:52.974Z,26.92
2023-10-26T20:49:19.566Z,28.27
2023-10-26T20:51:46.075Z,29.65
2023-10-26T20:54:12.592Z,28.52
2023-10-26T20:56:39.380Z,28.73
2023-10-26T20:59:05.971Z,27.75
2023-10-26T21:01:32.552Z,30.60
2023-10-26T21:03:59.060Z,31.85
2023-10-26T21:06:25.595Z,29.58
2023-10-26T21:08:54.318Z,28.83
2023-10-26T21:11:20.850Z,31.27
2023-10-26T21:13:47.336Z,28.67
2023-10-26T21:16:13.900Z,31.05
2023-10-26T21:18:40.405Z,29.88
2023-10-26T21:21:08.001Z,32.50
2023-10-26T21:23:35.767Z,33.20
2023-10-26T21:26:09.231Z,31.10
2023-10-26T21:28:36.459Z,33.35
2023-10-26T21:31:03.086Z,33.15
2023-10-26T21:33:29.817Z,33.03
2023-10-26T21:35:56.512Z,33.95
2023-10-26T21:38:23.135Z,34.33
2023-10-26T21:40:49.995Z,32.42
2023-10-26T21:43:16.928Z,32.88
2023-10-26T21:45:46.814Z,32.55
2023-10-26T21:50:41.304Z,35.03
2023-10-26T21:53:08.568Z,33.40
2023-10-26T21:55:38.389Z,33.70
2023-10-26T21:58:05.192Z,36.03
2023-10-26T22:00:32.235Z,38.05
2023-10-26T22:02:58.928Z,38.00
2023-10-26T22:05:26.861Z,38.58
2023-10-26T22:07:53.351Z,37.47
2023-10-26T22:10:20.177Z,35.15
2023-10-26T22:12:46.777Z,40.38
2023-10-26T22:15:13.756Z,36.22
2023-10-26T22:17:44.014Z,36.33
2023-10-26T22:20:11.265Z,37.20
2023-10-26T22:22:38.393Z,36.05
2023-10-26T22:25:05.335Z,38.63
2023-10-26T22:27:32.061Z,35.42
2023-10-26T22:29:58.591Z,38.00
2023-10-26T22:32:25.317Z,35.60
2023-10-26T22:34:52.163Z,38.85
2023-10-26T22:37:19.485Z,36.95
2023-10-26T22:39:46.237Z,37.10
2023-10-26T22:42:12.909Z,34.78
2023-10-26T22:44:39.381Z,37.70
2023-10-26T22:47:06.072Z,37.78
2023-10-26T22:49:32.968Z,39.90
2023-10-26T22:51:59.951Z,32.50
2023-10-26T22:54:26.531Z,35.95
2023-10-26T22:56:52.975Z,37.53
2023-10-26T22:59:20.511Z,37.00
2023-10-26T23:01:47.502Z,33.33
2023-10-26T23:04:14.144Z,35.85
2023-10-26T23:06:40.693Z,38.30
2023-10-26T23:09:07.665Z,35.63
2023-10-26T23:11:34.175Z,39.78
2023-10-26T23:14:00.936Z,38.22
2023-10-26T23:16:27.489Z,34.88
2023-10-26T23:18:54.069Z,36.38
2023-10-26T23:21:20.600Z,38.50
2023-10-26T23:23:47.222Z,37.65
2023-10-26T23:26:14.146Z,41.25
2023-10-26T23:28:40.666Z,39.15
2023-10-26T23:31:10.908Z,37.65
2023-10-26T23:33:38.162Z,37.85
2023-10-26T23:36:10.207Z,37.75
2023-10-26T23:38:37.189Z,39.55
2023-10-26T23:41:03.953Z,43.38
2023-10-26T23:43:30.506Z,38.50
2023-10-26T23:45:58.788Z,38.75
2023-10-26T23:48:25.776Z,37.30
2023-10-26T23:50:52.736Z,38.67
2023-10-26T23:53:19.989Z,39.22
2023-10-26T23:55:47.038Z,39.75
2023-10-26T23:58:13.873Z,37.40
